Flight Track Log - Related Links

Times and Time Zones

All times are in EDT time to prevent confusion due to time zone crossing. See the SWA2855 flight status page for this flight to view local times or setup timezone preferences in your user account.

Time Position Orientation Groundspeed Altitude Reporting Facility
EDT Latitude Longitude Course Direction KTS MPH feet Rate Location/Type
Thu 06:18:46 AM 39.1667 -76.7167 211° Southwest 169 194 2,300  Level Potomac TRACON
Thu 06:19:46 AM 39.1833 -76.8000 284° West 224 258 5,900 3,850 Climbing Potomac TRACON
Thu 06:20:46 AM 39.2000 -76.8833 284° West 255 293 10,000 4,300 Climbing Potomac TRACON
Thu 06:21:46 AM 39.2167 -76.9667 284° West 247 284 14,500 3,889 Climbing Potomac TRACON
Thu 06:22:34 AM 39.2167 -77.0500 270° West 255 293 17,000 2,325 Climbing Potomac TRACON
Thu 06:24:00 AM 39.1237 -77.2131 211° Southwest  Level FlightAware Approximate
Thu 06:24:26 AM 39.1547 -77.2056 243° Southwest 288 331 20,700  Level Washington Center
Thu 06:25:26 AM 39.1117 -77.3008 240° Southwest 304 350 22,500 1,200 Climbing Washington Center
Thu 06:26:26 AM 39.0933 -77.4183 259° West 319 367 23,100 1,650 Climbing Washington Center
Thu 06:27:26 AM 39.0750 -77.5356 259° West 332 382 25,800 2,600 Climbing Washington Center
Thu 06:28:26 AM 39.0561 -77.6633 259° West 332 382 28,300 2,100 Climbing Washington Center
Thu 06:29:26 AM 39.0375 -77.7669 257° West 332 382 30,000 850 Climbing Washington Center
Thu 06:30:26 AM 39.0164 -77.8944 258° West 332 382 30,000  Level Washington Center
Thu 06:31:26 AM 38.9975 -78.0089 258° West 332 382 30,000  Level Washington Center
Thu 06:32:26 AM 38.9764 -78.1231 257° West 332 382 30,000  Level Washington Center
Thu 06:33:26 AM 38.9614 -78.2372 260° West 332 382 30,000  Level Washington Center
Thu 06:34:26 AM 38.9650 -78.3547 272° West 332 382 30,000  Level Washington Center
Thu 06:35:26 AM 38.9686 -78.4750 272° West 326 375 30,000  Level Washington Center
Thu 06:36:26 AM 38.9719 -78.5928 272° West 331 381 30,000  Level Washington Center
Thu 06:37:26 AM 38.9772 -78.7131 273° West 331 381 30,000  Level Washington Center
Thu 06:38:26 AM 38.9800 -78.8386 272° West 341 392 30,000  Level Washington Center
Thu 06:39:26 AM 38.9850 -78.9617 273° West 346 398 30,000  Level Washington Center
Thu 06:40:26 AM 38.9878 -79.0875 272° West 346 398 30,000  Level Washington Center
Thu 06:41:26 AM 38.9903 -79.2103 272° West 346 398 30,000  Level Washington Center
Thu 06:42:26 AM 38.9928 -79.3361 272° West 351 404 30,000  Level Washington Center
Thu 06:43:26 AM 38.9950 -79.4617 271° West 351 404 30,000  Level Washington Center
Thu 06:44:26 AM 39.0000 -79.5636 274° West 351 404 30,000  Level Washington Center
Thu 06:45:26 AM 39.0014 -79.7106 271° West 364 419 30,000  Level Washington Center
Thu 06:46:26 AM 39.0011 -79.8361 270° West 369 425 30,000  Level Washington Center
Thu 06:48:42 AM 39.0047 -80.1139 271° West 357 411 30,000  Level Indianapolis Center
Thu 06:49:43 AM 39.0064 -80.2425 271° West 359 413 30,000  Level Indianapolis Center
Thu 06:50:43 AM 39.0092 -80.3694 272° West 357 411 30,000  Level Indianapolis Center
Thu 06:51:44 AM 39.0100 -80.4978 271° West 358 412 30,000  Level Indianapolis Center
Thu 06:52:45 AM 39.0117 -80.6506 271° West 357 411 30,000  Level Indianapolis Center
Thu 06:53:46 AM 39.0136 -80.7781 271° West 356 410 30,000  Level Indianapolis Center
Thu 06:54:47 AM 39.0494 -80.8992 291° West 369 425 30,000  Level Indianapolis Center
Thu 06:55:48 AM 39.0981 -81.0169 298° West 374 430 30,000 -347 Level Indianapolis Center
Thu 06:56:48 AM 39.1461 -81.1331 298° West 372 428 29,300 -893 Descending Indianapolis Center
Thu 06:57:49 AM 39.1872 -81.2481 295° West 356 410 28,200 -1,033 Descending Indianapolis Center
Thu 06:58:50 AM 39.2286 -81.3589 296° West 345 397 27,200 -1,033 Descending Indianapolis Center
Thu 06:59:51 AM 39.2672 -81.4647 295° West 332 382 26,100 -984 Descending Indianapolis Center
Thu 07:00:52 AM 39.3067 -81.5703 296° West 328 377 25,200 -934 Descending Indianapolis Center
Thu 07:01:53 AM 39.3447 -81.6756 295° West 324 373 24,200 -836 Descending Indianapolis Center
Thu 07:02:54 AM 39.3842 -81.7808 296° West 325 374 23,500 -1,377 Descending Indianapolis Center
Thu 07:03:55 AM 39.4197 -81.8797 295° West 308 354 21,400 -2,066 Descending Indianapolis Center
Thu 07:04:56 AM 39.4533 -81.9717 295° West 288 331 19,300 -2,267 Descending Indianapolis Center
Thu 07:05:25 AM 39.4794 -82.0275 301° West 379 436 18,000 -2,164 Descending Indianapolis Center
Thu 07:05:57 AM 39.4925 -82.0808 288° West 278 320 17,100 -1,871 Descending Indianapolis Center
Thu 07:06:58 AM 39.5225 -82.1631 295° West 285 328 15,100 -2,182 Descending Indianapolis Center
Thu 07:07:14 AM 39.5353 -82.2061 291° West 334 384 14,300 -1,967 Descending Indianapolis Center
Thu 07:07:59 AM 39.5589 -82.2567 301° West 287 330 13,100 -1,925 Descending Indianapolis Center
Thu 07:09:00 AM 39.6178 -82.3264 318° Northwest 283 326 10,900 -2,289 Descending Indianapolis Center
Thu 07:09:15 AM 39.6433 -82.3525 322° Northwest 340 391 10,200 -984 Descending Indianapolis Center
Thu 07:10:01 AM 39.6753 -82.3933 315° West 276 318 9,900 -197 Descending Indianapolis Center
Thu 07:10:16 AM 39.6914 -82.4197 308° West 299 344 10,000 -1,377 Climbing Indianapolis Center
Thu 07:11:02 AM 39.7369 -82.4639 323° Northwest 252 290 8,500 -1,794 Descending Indianapolis Center
Thu 07:12:03 AM 39.7914 -82.5278 318° Northwest 260 299 6,800 -1,704 Descending Indianapolis Center
Thu 07:12:23 AM 39.8108 -82.5492 320° Northwest 313 360 6,200 -1,770 Descending Indianapolis Center
Thu 07:13:04 AM 39.8442 -82.5894 317° Northwest 255 293 5,000 -1,612 Descending Indianapolis Center
Thu 07:13:30 AM 39.8650 -82.6147 317° Northwest 317 365 4,400 -1,082 Descending Indianapolis Center
Thu 07:14:05 AM 39.8961 -82.6489 320° Northwest 249 287 3,900 -818 Descending Indianapolis Center
Thu 07:14:36 AM 39.9219 -82.6753 322° Northwest 245 282 3,500 -689 Descending Indianapolis Center
Thu 07:15:06 AM 39.9408 -82.6997 315° West 221 254 3,200 -689 Descending Indianapolis Center
Thu 07:15:37 AM 39.9606 -82.7231 318° Northwest 189 217 2,800 -581 Descending Indianapolis Center
Thu 07:16:08 AM 39.9775 -82.7439 317° Northwest 192 221 2,600 -245 Descending Indianapolis Center
Thu 07:16:26 AM 39.9836 -82.7531 311° West 182 209 2,600 -295 Level Indianapolis Center
Thu 07:17:09 AM 39.9892 -82.7806 285° West 136 157 2,300 -500 Descending Indianapolis Center
Thu 07:17:26 AM 39.9894 -82.7944 271° West 134 154 2,100 -689 Descending Indianapolis Center
Thu 07:18:10 AM 39.9900 -82.8236 271° West 122 140 1,600 -571 Descending Indianapolis Center
Thu 07:19:11 AM 39.9925 -82.8689 274° West 116 133 1,100 -492 Descending Indianapolis Center
Thu 07:21:00 AM 39.9833 -82.8833 311° West  Level FlightAware Approximate

Login

Don't have an account? Register now (free) for customized features, flight alerts, and more!